createdAt,value
2023-06-17T00:01:49.040Z,82.53
2023-06-17T00:04:15.815Z,82.44
2023-06-17T00:06:42.634Z,82.29
2023-06-17T00:09:09.510Z,82.39
2023-06-17T00:11:36.299Z,82.57
2023-06-17T00:14:03.611Z,82.25
2023-06-17T00:16:33.901Z,82.07
2023-06-17T00:19:01.121Z,81.96
2023-06-17T00:21:27.858Z,82.17
2023-06-17T00:23:54.744Z,82.17
2023-06-17T00:26:21.511Z,82.34
2023-06-17T00:28:49.108Z,82.32
2023-06-17T00:31:17.784Z,82.70
2023-06-17T00:33:44.864Z,82.62
2023-06-17T00:36:11.686Z,82.66
2023-06-17T00:38:38.643Z,82.81
2023-06-17T00:41:05.416Z,82.67
2023-06-17T00:43:32.237Z,82.47
2023-06-17T00:45:59.968Z,82.67
2023-06-17T00:48:27.118Z,82.86
2023-06-17T00:50:54.018Z,82.89
2023-06-17T00:53:20.892Z,82.49
2023-06-17T00:55:48.141Z,82.44
2023-06-17T00:58:17.201Z,82.38
2023-06-17T01:00:43.980Z,82.16
2023-06-17T01:03:10.909Z,82.09
2023-06-17T01:05:39.855Z,81.99
2023-06-17T01:08:37.983Z,81.78
2023-06-17T01:11:04.765Z,81.74
2023-06-17T01:13:35.422Z,81.82
2023-06-17T01:16:04.019Z,81.71
2023-06-17T01:18:32.673Z,81.58
2023-06-17T01:21:00.273Z,81.14
2023-06-17T01:23:33.138Z,81.07
2023-06-17T01:26:02.903Z,80.56
2023-06-17T01:28:30.758Z,80.13
2023-06-17T01:30:58.600Z,80.49
2023-06-17T01:33:26.578Z,80.44
2023-06-17T01:36:03.514Z,80.89
2023-06-17T01:38:34.682Z,80.87
2023-06-17T01:41:05.781Z,80.43
2023-06-17T01:43:36.662Z,80.69
2023-06-17T01:46:05.564Z,81.01
2023-06-17T01:48:32.914Z,81.00
2023-06-17T01:50:59.997Z,81.41
2023-06-17T01:53:27.908Z,81.64
2023-06-17T01:55:55.428Z,81.91
2023-06-17T01:58:22.562Z,82.39
2023-06-17T02:00:49.414Z,82.49
2023-06-17T02:03:17.368Z,82.73
2023-06-17T02:05:45.885Z,82.72
2023-06-17T02:08:15.339Z,83.12
2023-06-17T02:10:42.632Z,83.15
2023-06-17T02:13:09.483Z,82.97
2023-06-17T02:15:36.684Z,82.45
2023-06-17T02:18:03.863Z,82.15
2023-06-17T02:20:30.716Z,82.20
2023-06-17T02:22:57.511Z,81.81
2023-06-17T02:25:24.376Z,81.70
2023-06-17T02:27:51.393Z,81.25
2023-06-17T02:30:18.667Z,80.75
2023-06-17T02:32:45.902Z,80.71
2023-06-17T02:35:12.846Z,80.43
2023-06-17T02:37:39.969Z,80.60
2023-06-17T02:40:10.074Z,80.63
2023-06-17T02:42:37.754Z,80.90
2023-06-17T02:45:05.959Z,81.02
2023-06-17T02:47:32.739Z,81.28
2023-06-17T02:49:59.671Z,81.35
2023-06-17T02:52:26.742Z,82.02
2023-06-17T02:54:53.679Z,82.76
2023-06-17T02:57:21.832Z,83.64
2023-06-17T02:59:48.935Z,84.19
2023-06-17T03:02:16.024Z,84.83
2023-06-17T03:04:43.494Z,85.08
2023-06-17T03:07:13.283Z,84.94
2023-06-17T03:09:40.133Z,84.89
2023-06-17T03:12:07.632Z,84.57
2023-06-17T03:14:34.895Z,84.19
2023-06-17T03:17:04.348Z,84.12
2023-06-17T03:19:31.340Z,83.99
2023-06-17T03:21:58.112Z,83.78
2023-06-17T03:24:26.829Z,83.67
2023-06-17T03:26:54.830Z,83.19
2023-06-17T03:29:22.294Z,83.02
2023-06-17T03:31:52.687Z,82.60
2023-06-17T03:34:20.402Z,82.56
2023-06-17T03:36:48.599Z,82.73
2023-06-17T03:39:15.944Z,82.57
2023-06-17T03:41:43.388Z,83.03
2023-06-17T03:44:10.719Z,83.21
2023-06-17T03:46:38.304Z,83.22
2023-06-17T03:49:05.581Z,83.05
2023-06-17T03:51:33.474Z,83.22
2023-06-17T03:54:00.789Z,83.32
2023-06-17T03:56:28.838Z,83.50
2023-06-17T03:58:55.723Z,83.65
2023-06-17T04:01:22.788Z,84.21
2023-06-17T04:03:50.290Z,84.72
2023-06-17T04:06:17.948Z,85.17
2023-06-17T04:08:45.259Z,85.55
2023-06-17T04:11:14.659Z,85.88
2023-06-17T04:13:41.431Z,85.94
2023-06-17T04:16:08.452Z,86.04
2023-06-17T04:18:35.407Z,86.25
2023-06-17T04:21:03.004Z,86.57
2023-06-17T04:23:31.547Z,86.46
2023-06-17T04:25:59.439Z,86.64
2023-06-17T04:28:26.302Z,86.72
2023-06-17T04:30:54.208Z,86.67
2023-06-17T04:33:21.507Z,86.78
2023-06-17T04:35:48.553Z,86.94
2023-06-17T04:38:15.844Z,86.81
2023-06-17T04:40:43.235Z,86.52
2023-06-17T04:43:11.204Z,86.54
2023-06-17T04:45:40.517Z,86.50
2023-06-17T04:48:08.257Z,86.13
2023-06-17T04:50:35.181Z,85.84
2023-06-17T04:53:04.840Z,85.29
2023-06-17T04:55:37.019Z,84.84
2023-06-17T04:58:05.747Z,84.64
2023-06-17T05:00:44.442Z,84.48
2023-06-17T05:03:15.127Z,84.21
2023-06-17T05:05:42.316Z,83.81
2023-06-17T05:08:09.279Z,83.37
2023-06-17T05:10:36.058Z,83.27
2023-06-17T05:13:03.780Z,82.84
2023-06-17T05:15:32.214Z,82.31
2023-06-17T05:17:59.095Z,81.48
2023-06-17T05:20:25.910Z,80.68
2023-06-17T05:22:52.765Z,79.70
2023-06-17T05:25:19.708Z,79.20
2023-06-17T05:27:46.569Z,79.15
2023-06-17T05:30:14.411Z,79.61
2023-06-17T05:32:44.332Z,79.12
2023-06-17T05:35:11.376Z,78.91
2023-06-17T05:37:38.677Z,78.68
2023-06-17T05:40:06.526Z,78.35
2023-06-17T05:42:34.796Z,77.42
2023-06-17T05:45:01.774Z,77.56
2023-06-17T05:47:30.805Z,77.94
2023-06-17T05:49:58.222Z,77.49
2023-06-17T05:52:25.547Z,77.52
2023-06-17T05:54:52.845Z,77.91
2023-06-17T05:57:19.820Z,77.32
2023-06-17T05:59:47.178Z,76.88
2023-06-17T06:02:14.054Z,77.12
2023-06-17T06:04:40.892Z,76.63
2023-06-17T06:07:08.698Z,76.48
2023-06-17T06:09:35.506Z,75.09
2023-06-17T06:12:02.625Z,74.16
2023-06-17T06:14:29.429Z,74.17
2023-06-17T06:16:56.870Z,72.40
2023-06-17T06:19:23.776Z,70.36
2023-06-17T06:21:51.073Z,69.71
2023-06-17T06:24:17.936Z,69.81
2023-06-17T06:26:44.766Z,68.77
2023-06-17T06:29:14.569Z,68.40
2023-06-17T06:31:44.634Z,68.30
2023-06-17T06:34:12.153Z,67.67
2023-06-17T06:36:38.953Z,67.43
2023-06-17T06:39:05.875Z,66.78
2023-06-17T06:41:32.815Z,65.67
2023-06-17T06:44:04.856Z,65.67
2023-06-17T06:46:33.033Z,63.20
2023-06-17T06:49:00.224Z,62.11
2023-06-17T06:51:27.588Z,61.67
2023-06-17T06:53:54.957Z,61.65
2023-06-17T06:56:21.908Z,61.57
2023-06-17T06:58:48.701Z,61.22
2023-06-17T07:01:15.854Z,60.80
2023-06-17T07:03:43.181Z,59.56
2023-06-17T07:06:10.292Z,59.98
2023-06-17T07:08:37.382Z,60.42
2023-06-17T07:11:04.173Z,60.24
2023-06-17T07:13:33.091Z,59.25
2023-06-17T07:15:59.938Z,58.61
2023-06-17T07:18:26.706Z,58.98
2023-06-17T07:20:53.505Z,58.24
2023-06-17T07:23:20.635Z,57.75
2023-06-17T07:25:48.262Z,57.74
2023-06-17T07:28:16.019Z,56.35
2023-06-17T07:30:43.086Z,55.77
2023-06-17T07:33:10.000Z,54.65
2023-06-17T07:35:37.669Z,54.84
2023-06-17T07:38:04.761Z,55.42
2023-06-17T07:40:31.634Z,56.32
2023-06-17T07:42:58.387Z,56.62
2023-06-17T07:45:25.267Z,55.12
2023-06-17T07:47:52.035Z,55.04
2023-06-17T07:50:19.065Z,56.15
2023-06-17T07:52:46.101Z,54.30
2023-06-17T07:55:13.275Z,53.25
2023-06-17T07:57:40.065Z,52.87
2023-06-17T08:00:11.394Z,50.04
2023-06-17T08:02:41.468Z,49.29
2023-06-17T08:05:09.869Z,48.91
2023-06-17T08:07:37.346Z,48.91
2023-06-17T08:10:08.000Z,48.57
2023-06-17T08:12:36.673Z,48.53
2023-06-17T08:15:04.146Z,48.21
2023-06-17T08:17:30.997Z,47.03
2023-06-17T08:19:57.911Z,45.47
2023-06-17T08:22:24.693Z,45.35
2023-06-17T08:24:51.518Z,45.34
2023-06-17T08:27:18.464Z,45.75
2023-06-17T08:29:45.258Z,45.35
2023-06-17T08:32:12.021Z,43.59
2023-06-17T08:34:38.836Z,43.51
2023-06-17T08:37:06.330Z,43.38
2023-06-17T08:39:33.269Z,43.30
2023-06-17T08:42:00.554Z,42.77
2023-06-17T08:44:30.372Z,41.28
2023-06-17T08:46:59.269Z,40.89
2023-06-17T08:49:27.964Z,41.17
2023-06-17T08:51:55.095Z,41.67
2023-06-17T08:54:22.844Z,40.64
2023-06-17T08:56:49.705Z,39.30
2023-06-17T08:59:16.560Z,39.60
2023-06-17T09:01:44.850Z,40.61
2023-06-17T09:04:13.897Z,40.92
2023-06-17T09:06:41.220Z,39.84
2023-06-17T09:09:07.994Z,40.34
2023-06-17T09:11:35.513Z,39.29
2023-06-17T09:14:02.817Z,38.23
2023-06-17T09:16:32.109Z,37.91
2023-06-17T09:19:00.792Z,38.95
2023-06-17T09:21:28.664Z,40.23
2023-06-17T09:23:57.532Z,39.84
2023-06-17T09:26:27.053Z,38.70
2023-06-17T09:28:53.853Z,40.01
2023-06-17T09:31:20.615Z,41.72
2023-06-17T09:33:48.053Z,40.44
2023-06-17T09:36:15.826Z,41.01
2023-06-17T09:38:42.859Z,40.10
2023-06-17T09:41:15.934Z,39.90
2023-06-17T09:43:42.786Z,39.71
2023-06-17T09:46:11.326Z,41.32
2023-06-17T09:48:40.032Z,40.50
2023-06-17T09:51:11.038Z,39.82
2023-06-17T09:53:39.423Z,39.35
2023-06-17T09:56:12.700Z,39.26
2023-06-17T09:58:42.089Z,39.26
2023-06-17T10:01:12.518Z,38.13
2023-06-17T10:03:41.236Z,38.94
2023-06-17T10:06:11.514Z,40.97
2023-06-17T10:08:43.094Z,39.34
2023-06-17T10:11:13.212Z,40.18
2023-06-17T10:13:41.423Z,41.30
2023-06-17T10:16:13.392Z,42.55
2023-06-17T10:18:43.040Z,43.33
2023-06-17T10:21:12.793Z,44.04
2023-06-17T10:23:42.273Z,44.43
2023-06-17T10:26:09.528Z,44.31
2023-06-17T10:28:55.066Z,40.74
2023-06-17T10:31:27.550Z,39.51
2023-06-17T10:33:56.542Z,40.76
2023-06-17T10:36:25.485Z,41.77
2023-06-17T10:38:56.528Z,42.17
2023-06-17T10:41:44.026Z,40.08
2023-06-17T10:44:41.424Z,38.82
2023-06-17T10:47:24.297Z,41.01
2023-06-17T10:49:54.166Z,39.75
2023-06-17T10:52:21.472Z,39.77
2023-06-17T10:54:54.512Z,41.47
2023-06-17T10:57:37.350Z,42.16
2023-06-17T11:00:11.079Z,42.75
2023-06-17T11:02:39.730Z,42.93
2023-06-17T11:05:08.488Z,41.51
2023-06-17T11:07:35.522Z,40.94
2023-06-17T11:10:03.861Z,40.18
2023-06-17T11:12:31.142Z,40.15
2023-06-17T11:15:01.458Z,40.91
2023-06-17T11:17:28.901Z,39.99
2023-06-17T11:19:56.543Z,39.07
2023-06-17T11:22:23.625Z,39.09
2023-06-17T11:24:50.534Z,38.61
2023-06-17T11:27:18.546Z,38.00
2023-06-17T11:29:46.172Z,39.14
2023-06-17T11:32:13.475Z,38.99
2023-06-17T11:34:42.743Z,38.77
2023-06-17T11:37:12.585Z,38.77
2023-06-17T11:39:40.183Z,37.93
2023-06-17T11:42:08.337Z,37.69
2023-06-17T11:44:36.247Z,37.72
2023-06-17T11:47:04.459Z,38.57
2023-06-17T11:49:31.516Z,37.41
2023-06-17T11:52:06.979Z,38.66
2023-06-17T11:54:34.214Z,39.22
2023-06-17T11:57:01.460Z,40.31
2023-06-17T11:59:29.667Z,40.66
2023-06-17T12:01:57.092Z,39.07
2023-06-17T12:04:24.081Z,38.76
2023-06-17T12:06:51.022Z,39.63
2023-06-17T12:09:17.886Z,39.00
2023-06-17T12:11:44.823Z,37.65
2023-06-17T12:14:13.358Z,35.80
2023-06-17T12:16:42.474Z,35.33
2023-06-17T12:19:20.662Z,33.73
2023-06-17T12:21:47.513Z,34.28
2023-06-17T12:24:16.725Z,33.17
2023-06-17T12:26:44.433Z,33.87
2023-06-17T12:29:24.457Z,33.37
2023-06-17T12:31:52.766Z,33.95
2023-06-17T12:34:19.552Z,34.71
2023-06-17T12:36:46.340Z,34.31
2023-06-17T12:39:13.134Z,34.85
2023-06-17T12:41:40.222Z,36.34
2023-06-17T12:44:07.106Z,33.99
2023-06-17T12:46:36.824Z,32.74
2023-06-17T12:49:03.966Z,31.51
2023-06-17T12:51:30.967Z,30.49
2023-06-17T12:53:57.718Z,28.00
2023-06-17T12:56:24.483Z,29.58
2023-06-17T12:58:51.228Z,30.34
2023-06-17T13:01:18.214Z,32.88
2023-06-17T13:03:45.201Z,33.16
2023-06-17T13:06:12.125Z,31.21
2023-06-17T13:08:39.451Z,31.74
2023-06-17T13:11:06.534Z,31.05
2023-06-17T13:13:34.377Z,30.79
2023-06-17T13:16:02.794Z,30.69
2023-06-17T13:18:29.506Z,31.57
2023-06-17T13:20:56.636Z,31.84
2023-06-17T13:23:23.389Z,33.24
2023-06-17T13:25:50.357Z,32.47
2023-06-17T13:28:17.267Z,31.72
2023-06-17T13:30:44.732Z,32.72
2023-06-17T13:33:11.680Z,35.21
2023-06-17T13:35:38.684Z,35.11
2023-06-17T13:38:05.466Z,35.33
2023-06-17T13:40:32.315Z,35.33
2023-06-17T13:42:59.129Z,36.50
2023-06-17T13:45:26.512Z,37.95
2023-06-17T13:47:53.355Z,37.79
2023-06-17T13:50:20.487Z,38.50
2023-06-17T13:52:47.500Z,37.80
2023-06-17T13:55:14.300Z,37.61
2023-06-17T13:57:41.069Z,37.55
2023-06-17T14:00:09.800Z,40.12
2023-06-17T14:02:36.800Z,39.61
2023-06-17T14:05:04.676Z,37.77
2023-06-17T14:07:32.281Z,36.92
2023-06-17T14:09:59.396Z,37.43
2023-06-17T14:12:26.462Z,36.43
2023-06-17T14:14:55.035Z,37.34
2023-06-17T14:17:25.108Z,38.33
2023-06-17T14:19:52.525Z,37.02
2023-06-17T14:22:19.324Z,36.15
2023-06-17T14:24:46.420Z,36.85
2023-06-17T14:27:29.640Z,36.63
2023-06-17T14:29:56.451Z,35.57
2023-06-17T14:32:23.495Z,35.12
2023-06-17T14:34:51.510Z,36.64
2023-06-17T14:37:18.786Z,37.79
2023-06-17T14:39:45.686Z,37.16
2023-06-17T14:42:13.057Z,36.30
2023-06-17T14:44:40.668Z,35.45
2023-06-17T14:47:07.894Z,37.54
2023-06-17T14:49:34.960Z,36.58
2023-06-17T14:52:01.820Z,37.34
2023-06-17T14:54:28.712Z,37.32
2023-06-17T14:56:56.048Z,37.59
2023-06-17T14:59:22.871Z,37.84
2023-06-17T15:01:49.638Z,37.78
2023-06-17T15:04:16.706Z,38.54
2023-06-17T15:06:43.544Z,38.30
2023-06-17T15:09:27.098Z,37.94
2023-06-17T15:11:54.925Z,39.75
2023-06-17T15:14:22.500Z,39.33
2023-06-17T15:16:50.156Z,40.91
2023-06-17T15:19:17.708Z,40.17
2023-06-17T15:21:44.705Z,40.06
2023-06-17T15:24:12.124Z,41.29
2023-06-17T15:26:39.166Z,40.75
2023-06-17T15:29:07.485Z,40.21
2023-06-17T15:31:35.120Z,39.89
2023-06-17T15:34:02.148Z,40.56
2023-06-17T15:36:30.050Z,41.69
2023-06-17T15:39:17.301Z,40.85
2023-06-17T15:41:45.479Z,39.48
2023-06-17T15:44:12.414Z,39.98
2023-06-17T15:46:39.292Z,39.02
2023-06-17T15:49:07.484Z,40.15
2023-06-17T15:51:35.646Z,39.85
2023-06-17T15:54:03.898Z,40.80
2023-06-17T15:56:31.228Z,40.79
2023-06-17T15:59:00.830Z,42.08
2023-06-17T16:01:28.560Z,42.42
2023-06-17T16:03:57.777Z,42.42
2023-06-17T16:06:24.746Z,41.94
2023-06-17T16:08:52.488Z,43.05
2023-06-17T16:11:19.777Z,43.06
2023-06-17T16:13:46.633Z,43.84
2023-06-17T16:16:13.457Z,43.50
2023-06-17T16:18:40.347Z,43.94
2023-06-17T16:21:07.103Z,43.68
2023-06-17T16:23:33.947Z,43.95
2023-06-17T16:26:02.209Z,44.50
2023-06-17T16:28:29.036Z,45.26
2023-06-17T16:30:55.896Z,44.83
2023-06-17T16:33:22.766Z,45.08
2023-06-17T16:35:49.629Z,45.71
2023-06-17T16:38:16.437Z,46.00
2023-06-17T16:40:43.263Z,46.47
2023-06-17T16:43:10.076Z,46.83
2023-06-17T16:45:37.122Z,47.07
2023-06-17T16:48:04.258Z,47.39
2023-06-17T16:50:31.104Z,47.10
2023-06-17T16:52:57.866Z,47.79
2023-06-17T16:55:25.015Z,48.75
2023-06-17T16:57:51.791Z,48.69
2023-06-17T17:00:19.655Z,49.19
2023-06-17T17:02:46.712Z,48.84
2023-06-17T17:05:13.549Z,49.13
2023-06-17T17:07:40.371Z,49.15
2023-06-17T17:10:07.396Z,50.13
2023-06-17T17:12:34.203Z,50.86
2023-06-17T17:15:01.169Z,49.85
2023-06-17T17:17:28.190Z,50.17
2023-06-17T17:19:55.657Z,49.55
2023-06-17T17:22:22.467Z,49.44
2023-06-17T17:24:49.276Z,49.40
2023-06-17T17:27:16.160Z,49.14
2023-06-17T17:29:42.928Z,48.14
2023-06-17T17:32:09.806Z,48.64
2023-06-17T17:34:36.594Z,49.05
2023-06-17T17:37:03.538Z,48.99
2023-06-17T17:39:30.527Z,48.94
2023-06-17T17:41:57.303Z,48.65
2023-06-17T17:44:24.053Z,48.98
2023-06-17T17:46:50.908Z,49.41
2023-06-17T17:49:17.723Z,49.86
2023-06-17T17:51:44.452Z,50.04
2023-06-17T17:54:11.300Z,50.05
2023-06-17T17:56:38.587Z,51.77
2023-06-17T17:59:06.366Z,52.80
2023-06-17T18:01:33.178Z,53.55
2023-06-17T18:03:59.939Z,53.62
2023-06-17T18:06:26.899Z,54.02
2023-06-17T18:08:53.715Z,54.60
2023-06-17T18:11:20.555Z,55.16
2023-06-17T18:13:47.422Z,53.27
2023-06-17T18:16:14.500Z,54.20
2023-06-17T18:18:41.405Z,54.32
2023-06-17T18:21:08.159Z,54.40
2023-06-17T18:23:34.918Z,54.95
2023-06-17T18:26:01.754Z,55.63
2023-06-17T18:28:28.773Z,55.95
2023-06-17T18:30:55.552Z,56.92
2023-06-17T18:33:22.523Z,57.82
2023-06-17T18:35:49.441Z,58.95
2023-06-17T18:38:16.808Z,59.76
2023-06-17T18:40:43.712Z,60.65
2023-06-17T18:43:10.684Z,61.13
2023-06-17T18:45:37.647Z,61.36
2023-06-17T18:48:05.398Z,61.40
2023-06-17T18:50:32.336Z,62.00
2023-06-17T18:52:59.138Z,62.27
2023-06-17T18:55:26.008Z,62.47
2023-06-17T18:57:52.742Z,62.14
2023-06-17T19:00:20.253Z,62.48
2023-06-17T19:02:47.509Z,63.13
2023-06-17T19:05:14.368Z,63.79
2023-06-17T19:07:44.614Z,64.72
2023-06-17T19:10:12.423Z,65.40
2023-06-17T19:12:39.581Z,66.41
2023-06-17T19:15:10.024Z,67.00
2023-06-17T19:17:38.737Z,67.35
2023-06-17T19:20:07.925Z,67.33
2023-06-17T19:22:36.844Z,67.49
2023-06-17T19:25:05.541Z,67.46
2023-06-17T19:27:32.662Z,67.31
2023-06-17T19:30:01.739Z,67.58
2023-06-17T19:32:29.543Z,68.06
2023-06-17T19:34:58.810Z,68.34
2023-06-17T19:37:27.957Z,68.34
2023-06-17T19:39:54.792Z,68.59
2023-06-17T19:42:22.035Z,69.14
2023-06-17T19:44:56.982Z,69.43
2023-06-17T19:47:25.788Z,69.51
2023-06-17T19:49:53.942Z,69.72
2023-06-17T19:52:21.254Z,70.05
2023-06-17T19:54:48.608Z,70.24
2023-06-17T19:57:15.936Z,70.58
2023-06-17T19:59:42.798Z,70.87
2023-06-17T20:02:11.119Z,71.37
2023-06-17T20:04:37.872Z,71.84
2023-06-17T20:07:04.845Z,71.86
2023-06-17T20:09:31.688Z,71.79
2023-06-17T20:11:58.457Z,72.10
2023-06-17T20:14:25.228Z,72.28
2023-06-17T20:16:53.093Z,72.57
2023-06-17T20:19:20.144Z,72.80
2023-06-17T20:21:47.171Z,72.92
2023-06-17T20:24:13.971Z,73.32
2023-06-17T20:26:40.820Z,73.62
2023-06-17T20:29:07.578Z,73.96
2023-06-17T20:31:34.347Z,74.17
2023-06-17T20:34:02.232Z,74.69
2023-06-17T20:36:29.503Z,74.80
2023-06-17T20:38:56.579Z,74.41
2023-06-17T20:41:23.315Z,74.34
2023-06-17T20:43:50.128Z,74.83
2023-06-17T20:46:17.450Z,75.13
2023-06-17T20:48:44.398Z,75.38
2023-06-17T20:51:11.360Z,75.20
2023-06-17T20:53:38.415Z,75.46
2023-06-17T20:56:05.210Z,75.46
2023-06-17T20:58:32.189Z,75.75
2023-06-17T21:00:59.076Z,76.09
2023-06-17T21:03:26.158Z,76.11
2023-06-17T21:05:52.968Z,76.18
2023-06-17T21:08:19.929Z,76.53
2023-06-17T21:10:46.684Z,77.28
2023-06-17T21:13:13.605Z,77.46
2023-06-17T21:15:40.629Z,77.65
2023-06-17T21:18:07.433Z,77.65
2023-06-17T21:20:34.258Z,77.67
2023-06-17T21:23:01.045Z,77.79
2023-06-17T21:25:27.875Z,78.09
2023-06-17T21:27:54.639Z,78.50
2023-06-17T21:30:21.640Z,78.62
2023-06-17T21:32:48.680Z,78.44
2023-06-17T21:35:15.729Z,78.22
2023-06-17T21:37:42.473Z,78.25
2023-06-17T21:40:10.206Z,78.44
2023-06-17T21:42:37.651Z,78.42
2023-06-17T21:45:04.852Z,78.07
2023-06-17T21:47:31.816Z,78.03
2023-06-17T21:49:59.518Z,78.47
2023-06-17T21:52:26.343Z,78.77
2023-06-17T21:54:53.132Z,78.82
2023-06-17T21:57:21.043Z,78.92
2023-06-17T21:59:47.824Z,79.13
2023-06-17T22:02:14.783Z,79.24
2023-06-17T22:04:41.612Z,79.85
2023-06-17T22:07:08.469Z,79.75
2023-06-17T22:09:35.321Z,79.92
2023-06-17T22:12:02.247Z,79.97
2023-06-17T22:14:29.034Z,80.05
2023-06-17T22:16:55.761Z,79.99
2023-06-17T22:19:22.786Z,80.46
2023-06-17T22:21:49.606Z,80.22
2023-06-17T22:24:16.454Z,79.79
2023-06-17T22:26:43.255Z,79.93
2023-06-17T22:29:10.015Z,80.37
2023-06-17T22:31:36.810Z,80.54
2023-06-17T22:34:03.645Z,80.64
2023-06-17T22:36:30.414Z,80.08
2023-06-17T22:38:57.240Z,79.92
2023-06-17T22:41:24.213Z,79.49
2023-06-17T22:43:51.135Z,79.11
2023-06-17T22:46:18.033Z,78.63
2023-06-17T22:48:44.807Z,78.86
2023-06-17T22:51:11.581Z,78.87
2023-06-17T22:53:38.357Z,78.95
2023-06-17T22:56:05.263Z,79.41
2023-06-17T22:58:32.079Z,79.90
2023-06-17T23:00:59.380Z,80.79
2023-06-17T23:03:26.675Z,81.25
2023-06-17T23:05:53.489Z,81.57
2023-06-17T23:08:20.236Z,81.30
2023-06-17T23:10:47.164Z,81.29
2023-06-17T23:13:14.039Z,81.40
2023-06-17T23:15:41.167Z,81.28
2023-06-17T23:18:08.446Z,81.67
2023-06-17T23:20:35.275Z,82.23
2023-06-17T23:23:04.168Z,82.88
2023-06-17T23:25:31.664Z,83.42
2023-06-17T23:27:58.477Z,83.48
2023-06-17T23:30:26.041Z,83.30
2023-06-17T23:32:53.424Z,83.12
2023-06-17T23:35:20.654Z,83.18
2023-06-17T23:37:47.559Z,82.93
2023-06-17T23:40:14.505Z,82.52
2023-06-17T23:42:41.636Z,82.29
2023-06-17T23:45:09.193Z,82.24
2023-06-17T23:47:36.277Z,81.72
2023-06-17T23:50:03.224Z,81.16
2023-06-17T23:52:30.086Z,80.62
2023-06-17T23:54:56.865Z,80.21
2023-06-17T23:57:23.654Z,80.19
2023-06-17T23:59:50.412Z,80.16
